Time;durP1;ratioP1;P1;durP2;ratioP2;P2;SDS_P1;SDS_P2;PMS_P1;PMS_P2;Temp;Humidity;BMP_temperature;BMP_pressure;BME280_temperature;BME280_humidity;BME280_pressure;Samples;Min_cycle;Max_cycle;Signal;HPM_P1;HPM_P2
2021/07/23 00:01:11;;;;;;;4.27;2.90;;;;;;;28.72;43.19;100964.34;128474;1084;64162;-85
2021/07/23 00:03:49;;;;;;;3.60;2.60;;;;;;;28.71;43.22;100958.06;128468;1082;64175;-84
2021/07/23 00:06:18;;;;;;;4.17;2.80;;;;;;;28.71;43.09;100958.06;128506;1084;63919;-85
2021/07/23 00:08:47;;;;;;;3.95;2.70;;;;;;;28.71;43.34;100955.34;128465;1084;64246;-85
2021/07/23 00:11:22;;;;;;;4.30;2.80;;;;;;;28.71;43.35;100960.78;128906;1084;64138;-84
2021/07/23 00:13:57;;;;;;;4.43;2.93;;;;;;;28.71;43.20;100962.66;128540;1084;64534;-85
2021/07/23 00:16:44;;;;;;;4.53;2.90;;;;;;;28.71;43.23;100966.21;128468;1084;64131;-85
2021/07/23 00:19:28;;;;;;;4.47;2.70;;;;;;;28.71;43.10;100965.38;128551;1084;64291;-84
2021/07/23 00:21:54;;;;;;;5.33;2.93;;;;;;;28.70;43.32;100969.93;128549;1084;64125;-87
2021/07/23 00:24:30;;;;;;;4.73;2.83;;;;;;;28.70;43.30;100959.06;128472;1084;64297;-84
2021/07/23 00:27:03;;;;;;;4.20;2.80;;;;;;;28.71;43.02;100957.22;128893;1082;63936;-84
2021/07/23 00:29:39;;;;;;;4.30;2.65;;;;;;;28.72;43.37;100961.62;128516;1084;64133;-85
2021/07/23 00:32:05;;;;;;;4.30;3.03;;;;;;;28.70;42.99;100961.78;128519;1084;65321;-87
2021/07/23 00:34:32;;;;;;;4.73;2.80;;;;;;;28.71;43.12;100959.94;128492;1081;64587;-85
2021/07/23 00:37:07;;;;;;;5.57;2.73;;;;;;;28.70;43.25;100958.22;128530;1084;64095;-85
2021/07/23 00:39:37;;;;;;;4.53;2.97;;;;;;;28.70;43.28;100964.50;128487;1082;64133;-85
2021/07/23 00:42:12;;;;;;;4.83;2.90;;;;;;;28.70;43.25;100958.22;128484;1084;64288;-85
2021/07/23 00:44:41;;;;;;;4.40;2.90;;;;;;;28.70;43.28;100960.94;128512;1084;64362;-85
2021/07/23 00:47:16;;;;;;;5.77;2.60;;;;;;;28.69;43.38;100949.20;128472;1084;64132;-85
2021/07/23 00:49:42;;;;;;;4.10;2.97;;;;;;;28.69;42.97;100951.08;128492;1084;64584;-85
2021/07/23 00:52:29;;;;;;;4.17;2.57;;;;;;;28.69;43.25;100951.92;128562;1084;64093;-84
2021/07/23 00:55:08;;;;;;;4.23;2.70;;;;;;;28.69;43.43;100948.36;128520;1084;64486;-85
2021/07/23 00:57:43;;;;;;;4.40;2.97;;;;;;;28.69;43.23;100945.64;128930;1084;64138;-85
2021/07/23 01:00:17;;;;;;;4.17;2.63;;;;;;;28.69;42.99;100948.36;128878;1082;64298;-85
2021/07/23 01:02:43;;;;;;;4.23;2.67;;;;;;;28.68;43.46;100944.80;128898;1083;64290;-85
2021/07/23 01:05:18;;;;;;;3.93;2.67;;;;;;;28.69;43.12;100949.20;128516;1084;63945;-85
2021/07/23 01:07:46;;;;;;;5.20;2.60;;;;;;;28.68;43.33;100950.23;128898;1084;64115;-85
2021/07/23 01:10:16;;;;;;;4.03;2.83;;;;;;;28.68;43.45;100949.36;128492;1084;64019;-85
2021/07/23 01:12:42;;;;;;;5.63;3.00;;;;;;;28.68;43.33;100949.36;128477;1082;64125;-85
2021/07/23 01:15:18;;;;;;;3.93;2.73;;;;;;;28.68;43.11;100946.65;128906;1084;64166;-85
2021/07/23 01:17:45;;;;;;;4.80;2.93;;;;;;;28.67;43.34;100953.95;128762;1081;64272;-85
2021/07/23 01:20:23;;;;;;;3.73;2.33;;;;;;;28.68;43.08;100943.93;128328;1084;64157;-85
2021/07/23 01:22:50;;;;;;;5.53;2.90;;;;;;;28.68;43.15;100952.08;128925;1084;64159;-85
2021/07/23 01:25:45;;;;;;;3.87;2.57;;;;;;;28.69;43.43;100953.80;128556;1084;64131;-86
2021/07/23 01:28:21;;;;;;;5.63;2.80;;;;;;;28.68;43.26;100943.93;128925;1084;63936;-85
2021/07/23 01:31:01;;;;;;;;;;;;;;;;;;;;;
2021/07/23 01:33:35;;;;;;;5.57;2.87;;;;;;;28.68;43.43;100949.36;128893;1084;64297;-84
2021/07/23 01:36:10;;;;;;;4.90;3.00;;;;;;;28.67;43.54;100948.52;128927;1084;64130;-85
2021/07/23 01:38:37;;;;;;;3.87;2.47;;;;;;;28.68;43.55;100946.65;128920;1084;64125;-84
2021/07/23 01:41:07;;;;;;;4.47;3.00;;;;;;;28.68;43.34;100954.80;128509;1084;64132;-84
2021/07/23 01:43:53;;;;;;;3.47;2.67;;;;;;;28.68;43.15;100946.65;128489;1084;64099;-85
2021/07/23 01:46:20;;;;;;;4.40;2.70;;;;;;;28.67;43.36;100953.95;128614;1084;63987;-85
2021/07/23 01:48:46;;;;;;;5.30;2.90;;;;;;;28.67;43.33;100951.23;128479;1083;64205;-85
2021/07/23 01:51:26;;;;;;;;;;;;;;;;;;;;;
2021/07/23 01:53:53;;;;;;;4.23;2.90;;;;;;;28.66;43.49;100949.52;128512;1084;64151;-85
2021/07/23 01:56:28;;;;;;;5.20;2.90;;;;;;;28.67;43.31;100953.95;128938;1084;64128;-84
2021/07/23 01:59:02;;;;;;;4.47;2.67;;;;;;;28.66;43.30;100954.11;128916;1083;64009;-85
2021/07/23 02:01:31;;;;;;;5.57;2.90;;;;;;;28.65;43.21;100953.24;128495;1083;64160;-85
2021/07/23 02:04:18;;;;;;;4.97;2.90;;;;;;;28.66;43.56;100948.69;128585;1082;64362;-84
2021/07/23 02:06:54;;;;;;;3.83;2.50;;;;;;;28.66;43.40;100954.11;128505;1084;64185;-85
2021/07/23 02:09:21;;;;;;;4.73;2.93;;;;;;;28.66;43.40;100957.67;128500;1083;64218;-84
2021/07/23 02:11:47;;;;;;;4.30;2.87;;;;;;;28.66;43.48;100957.67;128498;1084;64115;-85
2021/07/23 02:14:24;;;;;;;;;;;;;;;;;;;;;
2021/07/23 02:16:58;;;;;;;5.73;2.83;;;;;;;28.66;43.41;100956.83;128585;1082;64089;-83
2021/07/23 02:19:25;;;;;;;4.70;2.80;;;;;;;28.66;43.64;100962.27;128494;1084;64090;-85
2021/07/23 02:21:53;;;;;;;4.95;3.00;;;;;;;28.66;43.40;100954.11;128498;1084;64200;-85
2021/07/23 02:24:20;;;;;;;4.40;3.20;;;;;;;28.66;43.38;100959.55;128516;1083;64301;-85
2021/07/23 02:26:55;;;;;;;5.47;3.20;;;;;;;28.65;43.32;100955.12;128941;1083;64138;-85
2021/07/23 02:29:32;;;;;;;4.63;2.60;;;;;;;28.64;43.45;100951.56;128488;1084;64281;-84
2021/07/23 02:32:01;;;;;;;4.60;2.40;;;;;;;28.64;43.47;100954.28;128887;1084;64131;-84
2021/07/23 02:34:29;;;;;;;4.70;2.80;;;;;;;28.65;43.49;100955.12;128517;1083;64712;-85
2021/07/23 02:37:05;;;;;;;5.33;2.77;;;;;;;28.65;43.65;100955.12;128530;1083;63987;-85
2021/07/23 02:39:36;;;;;;;4.90;2.80;;;;;;;28.65;43.45;100960.55;128462;1084;63993;-85
2021/07/23 02:42:08;;;;;;;4.47;2.77;;;;;;;28.64;43.70;100954.28;128549;1084;64205;-85
2021/07/23 02:44:35;;;;;;;3.47;2.50;;;;;;;28.65;43.26;100952.41;128876;1084;64288;-85
2021/07/23 02:47:12;;;;;;;5.50;2.80;;;;;;;28.63;43.26;100960.68;128522;1084;64272;-85
2021/07/23 02:49:42;;;;;;;4.13;2.60;;;;;;;28.63;43.35;100962.52;128469;1084;64278;-85
2021/07/23 02:52:16;;;;;;;4.10;2.80;;;;;;;28.63;43.57;100959.81;128900;1084;64128;-85
2021/07/23 02:54:47;;;;;;;4.33;3.00;;;;;;;28.63;43.72;100951.66;128901;1084;64275;-85
2021/07/23 02:57:14;;;;;;;4.40;2.70;;;;;;;28.63;43.51;100959.81;128468;1084;64096;-85
2021/07/23 02:59:40;;;;;;;5.27;2.80;;;;;;;28.63;43.48;100957.96;128501;1084;64159;-85
2021/07/23 03:02:07;;;;;;;3.97;2.77;;;;;;;28.63;43.43;100959.81;128494;1084;64365;-85
2021/07/23 03:04:33;;;;;;;4.47;2.83;;;;;;;28.63;43.63;100962.52;128529;1083;64128;-85
2021/07/23 03:06:59;;;;;;;4.53;2.63;;;;;;;28.63;43.51;100962.52;128620;1084;64150;-85
2021/07/23 03:09:26;;;;;;;5.23;3.00;;;;;;;28.63;43.47;100971.55;128566;1084;64137;-84
2021/07/23 03:11:52;;;;;;;5.60;2.90;;;;;;;28.64;43.46;100964.23;128556;1084;63449;-85
2021/07/23 03:14:41;;;;;;;4.00;2.70;;;;;;;28.64;43.51;100958.80;128521;1084;64288;-85
2021/07/23 03:17:09;;;;;;;5.03;2.40;;;;;;;28.64;43.50;100966.95;128397;1086;64102;-86
2021/07/23 03:19:37;;;;;;;3.50;2.70;;;;;;;28.64;43.26;100958.80;128026;1087;64259;-85
2021/07/23 03:22:09;;;;;;;3.88;2.90;;;;;;;28.64;43.66;100967.86;127958;1087;62184;-84
2021/07/23 03:24:58;;;;;;;4.43;2.90;;;;;;;28.64;43.40;100961.52;128039;1087;64295;-84
2021/07/23 03:27:28;;;;;;;;;;;;;;;28.63;43.62;100962.52;128392;1087;64099;-85
2021/07/23 03:30:04;;;;;;;3.83;2.57;;;;;;;28.62;43.42;100960.84;128329;1087;64296;-85
2021/07/23 03:32:31;;;;;;;4.17;2.90;;;;;;;28.63;43.47;100970.67;128040;1087;64288;-85
2021/07/23 03:35:21;;;;;;;4.40;2.97;;;;;;;28.62;43.77;100968.98;128067;1087;64217;-85
2021/07/23 03:38:01;;;;;;;4.43;2.57;;;;;;;28.62;43.58;100968.98;128031;1086;64144;-85
2021/07/23 03:40:31;;;;;;;4.00;2.73;;;;;;;28.62;43.40;100977.14;128371;1087;64552;-84
2021/07/23 03:43:06;;;;;;;3.93;2.90;;;;;;;28.62;43.36;100977.98;128040;1085;64239;-85
2021/07/23 03:45:35;;;;;;;4.60;3.00;;;;;;;28.62;43.57;100975.27;128367;1087;64215;-84
2021/07/23 03:48:06;;;;;;;4.45;2.80;;;;;;;28.62;43.65;100972.55;128046;1087;64240;-85
2021/07/23 03:50:55;;;;;;;3.97;2.83;;;;;;;28.62;43.67;100975.27;128001;1087;64314;-85
2021/07/23 03:53:23;;;;;;;4.50;3.00;;;;;;;28.63;43.50;100976.10;128068;1087;64269;-85
2021/07/23 03:56:05;;;;;;;5.33;2.90;;;;;;;28.63;43.35;100978.81;128556;1082;64121;-86
2021/07/23 03:58:55;;;;;;;5.03;3.10;;;;;;;28.63;43.51;100986.97;128597;1084;64150;-85
2021/07/23 04:01:28;;;;;;;4.60;2.83;;;;;;;28.63;43.53;100989.68;128500;1084;63939;-85
2021/07/23 04:03:57;;;;;;;4.37;2.90;;;;;;;28.62;43.41;100994.27;128497;1083;64110;-85
2021/07/23 04:06:34;;;;;;;4.47;2.87;;;;;;;28.62;43.67;100988.84;128486;1082;64134;-85
2021/07/23 04:09:11;;;;;;;3.87;2.67;;;;;;;28.62;43.68;100983.41;128898;1082;64097;-84
2021/07/23 04:11:47;;;;;;;4.27;2.63;;;;;;;28.62;43.40;100986.13;128914;1083;63987;-85
2021/07/23 04:14:14;;;;;;;4.53;2.97;;;;;;;28.62;43.43;100980.69;128497;1084;64601;-85
2021/07/23 04:16:50;;;;;;;5.20;2.90;;;;;;;28.63;43.55;100976.10;128447;1084;64268;-85
2021/07/23 04:19:21;;;;;;;4.30;2.90;;;;;;;28.63;43.57;100981.53;128940;1084;64131;-85
2021/07/23 04:21:51;;;;;;;4.73;2.67;;;;;;;28.62;43.68;100977.98;128526;1084;64125;-84
2021/07/23 04:24:20;;;;;;;5.43;2.97;;;;;;;28.61;43.53;100978.98;128932;1084;64128;-84
2021/07/23 04:26:49;;;;;;;5.10;3.00;;;;;;;28.62;43.70;100980.69;128472;1084;64145;-83
2021/07/23 04:29:19;;;;;;;4.60;2.97;;;;;;;28.62;43.32;100977.14;128534;1084;64137;-85
2021/07/23 04:31:59;;;;;;;5.58;3.03;;;;;;;28.61;43.46;100976.27;128554;1084;64108;-84
2021/07/23 04:34:26;;;;;;;5.30;3.00;;;;;;;28.60;43.59;100980.85;128470;1083;64211;-85
2021/07/23 04:36:52;;;;;;;4.33;3.00;;;;;;;28.60;44.01;100989.00;128454;1083;64209;-85
2021/07/23 04:39:19;;;;;;;4.10;3.10;;;;;;;28.59;43.43;100983.73;128495;1084;64144;-85
2021/07/23 04:41:48;;;;;;;5.03;3.10;;;;;;;28.59;43.18;100984.57;128508;1084;64719;-85
2021/07/23 04:44:17;;;;;;;5.90;3.20;;;;;;;28.58;43.18;100982.86;128498;1084;64066;-84
2021/07/23 04:46:55;;;;;;;5.90;3.00;;;;;;;28.58;43.46;100990.16;128912;1082;64252;-84
2021/07/23 04:49:32;;;;;;;6.83;3.30;;;;;;;28.57;43.19;100981.17;128939;1084;64125;-85
2021/07/23 04:51:58;;;;;;;5.17;3.37;;;;;;;28.57;43.13;100985.73;128876;1084;64118;-86
2021/07/23 04:54:27;;;;;;;4.27;3.10;;;;;;;28.56;43.05;100982.17;128920;1082;64137;-85
2021/07/23 04:56:58;;;;;;;6.37;3.50;;;;;;;28.55;43.10;100983.17;128479;1084;64172;-85
2021/07/23 04:59:25;;;;;;;5.70;3.63;;;;;;;28.55;42.84;100993.20;128905;1084;63981;-85
2021/07/23 05:01:51;;;;;;;8.53;3.67;;;;;;;28.55;42.55;100990.48;128481;1084;64304;-84
2021/07/23 05:04:18;;;;;;;6.50;3.40;;;;;;;28.54;42.43;100992.33;128461;1084;64093;-87
2021/07/23 05:06:44;;;;;;;6.40;3.23;;;;;;;28.53;42.46;100985.21;128490;1084;64124;-84
2021/07/23 05:09:10;;;;;;;7.37;3.17;;;;;;;28.53;41.96;100984.34;128919;1084;64170;-86
2021/07/23 05:11:55;;;;;;;5.40;3.50;;;;;;;28.52;42.19;100980.78;128563;1084;63947;-84
2021/07/23 05:14:28;;;;;;;5.83;3.20;;;;;;;28.52;42.26;100988.05;128484;1084;64128;-83
2021/07/23 05:17:01;;;;;;;7.60;3.33;;;;;;;28.51;41.97;100991.80;128492;1084;64143;-84
2021/07/23 05:19:30;;;;;;;7.47;3.70;;;;;;;28.51;42.20;100984.50;128927;1084;64155;-86
2021/07/23 05:21:57;;;;;;;9.53;3.80;;;;;;;28.50;42.19;100990.92;128468;1083;64202;-84
2021/07/23 05:24:33;;;;;;;7.63;3.80;;;;;;;28.50;41.82;100985.50;128420;1084;64719;-85
2021/07/23 05:27:02;;;;;;;9.13;4.00;;;;;;;28.51;41.77;100989.09;128884;1084;63976;-85
2021/07/23 05:29:31;;;;;;;9.13;4.50;;;;;;;28.49;41.65;100983.78;128498;1084;64109;-84
2021/07/23 05:31:57;;;;;;;8.23;4.10;;;;;;;28.49;41.38;100986.50;128483;1084;64253;-86
2021/07/23 05:34:23;;;;;;;7.60;4.00;;;;;;;28.50;41.35;100984.66;128480;1084;61789;-80
2021/07/23 05:36:56;;;;;;;8.53;3.80;;;;;;;28.49;41.53;100991.09;128483;1084;64140;-86
2021/07/23 05:39:22;;;;;;;6.93;4.20;;;;;;;28.49;41.21;100989.22;128511;1084;64144;-84
2021/07/23 05:41:48;;;;;;;6.33;3.63;;;;;;;28.49;41.16;100991.93;128455;1084;64026;-84
2021/07/23 05:44:15;;;;;;;9.30;4.37;;;;;;;28.51;40.82;100994.52;128479;1084;64131;-85
2021/07/23 05:46:44;;;;;;;9.53;4.07;;;;;;;28.51;41.06;100997.23;128898;1084;64131;-86
2021/07/23 05:49:23;;;;;;;11.80;4.27;;;;;;;28.52;40.76;100997.08;128489;1084;64102;-85
2021/07/23 05:51:50;;;;;;;8.97;4.27;;;;;;;28.52;40.90;100991.64;128486;1084;64108;-84
2021/07/23 05:54:27;;;;;;;9.27;4.57;;;;;;;28.53;41.03;100995.20;128916;1084;64101;-85
2021/07/23 05:56:53;;;;;;;8.77;4.13;;;;;;;28.54;40.42;100995.04;128369;1084;65695;-85
2021/07/23 05:59:21;;;;;;;11.37;4.20;;;;;;;28.54;40.73;100999.63;128383;1084;64157;-85
2021/07/23 06:01:48;;;;;;;12.07;4.40;;;;;;;28.54;40.65;100995.04;128387;1082;64099;-84
2021/07/23 06:04:14;;;;;;;13.83;4.53;;;;;;;28.54;40.46;100992.33;128353;1084;64376;-84
2021/07/23 06:06:44;;;;;;;14.37;4.57;;;;;;;28.54;40.40;100992.33;128327;1084;64151;-85
2021/07/23 06:09:13;;;;;;;12.43;4.40;;;;;;;28.55;40.33;100993.20;128393;1083;64128;-84
2021/07/23 06:12:02;;;;;;;10.63;4.20;;;;;;;28.54;40.24;100995.04;128398;1084;64041;-84
2021/07/23 06:14:29;;;;;;;12.40;4.20;;;;;;;28.54;39.99;100989.61;128361;1087;64143;-85
2021/07/23 06:16:55;;;;;;;12.50;4.60;;;;;;;28.55;40.31;100988.61;128022;1087;64275;-85
2021/07/23 06:19:25;;;;;;;8.33;4.17;;;;;;;28.54;39.90;100981.46;128001;1085;64161;-84
2021/07/23 06:21:54;;;;;;;9.07;4.40;;;;;;;28.55;40.04;100982.34;127999;1087;64163;-85
2021/07/23 06:24:23;;;;;;;7.83;3.90;;;;;;;28.54;40.18;100978.75;127962;1087;64115;-85
2021/07/23 06:26:52;;;;;;;9.17;3.83;;;;;;;28.54;40.26;100983.34;127990;1087;64287;-85
2021/07/23 06:29:21;;;;;;;6.98;4.20;;;;;;;28.56;39.84;100986.73;128308;1086;64070;-83
2021/07/23 06:31:48;;;;;;;8.90;4.10;;;;;;;28.55;39.71;100988.61;128000;1087;64131;-84
2021/07/23 06:34:21;;;;;;;7.77;4.07;;;;;;;28.55;39.73;100987.77;128323;1087;64329;-84
2021/07/23 06:36:56;;;;;;;7.27;4.20;;;;;;;28.54;39.59;100986.89;128362;1086;65497;-84
2021/07/23 06:39:22;;;;;;;6.50;3.87;;;;;;;28.54;39.68;100981.46;128061;1085;64135;-85
2021/07/23 06:41:48;;;;;;;7.83;3.97;;;;;;;28.55;39.60;100987.77;128013;1086;64635;-83
2021/07/23 06:44:15;;;;;;;8.70;4.10;;;;;;;28.55;39.65;100988.61;128286;1086;64211;-83
2021/07/23 06:46:41;;;;;;;9.63;3.70;;;;;;;28.56;39.43;100979.45;128318;1087;64139;-84
2021/07/23 06:49:08;;;;;;;8.10;3.68;;;;;;;28.58;39.43;100991.00;128045;1087;64105;-84
2021/07/23 06:51:34;;;;;;;7.27;3.70;;;;;;;28.59;39.36;100984.57;128447;1084;64317;-84
2021/07/23 06:54:14;;;;;;;8.47;4.23;;;;;;;28.59;39.07;100986.45;128549;1082;64262;-84
2021/07/23 06:56:41;;;;;;;7.07;4.00;;;;;;;28.60;38.97;100982.73;128974;1084;64208;-84
2021/07/23 06:59:07;;;;;;;8.07;3.77;;;;;;;28.61;39.56;100989.84;128981;1082;64278;-85
2021/07/23 07:01:47;;;;;;;7.43;4.03;;;;;;;28.61;39.25;100989.84;128624;1084;61834;-85
2021/07/23 07:04:16;;;;;;;6.70;3.67;;;;;;;28.62;39.17;100988.00;128990;1084;64642;-84
2021/07/23 07:06:45;;;;;;;9.33;4.07;;;;;;;28.63;38.92;100981.53;128992;1084;64150;-84
2021/07/23 07:09:25;;;;;;;7.03;3.93;;;;;;;28.64;38.68;100980.53;128914;1084;64101;-85
2021/07/23 07:11:52;;;;;;;6.57;3.60;;;;;;;28.64;38.80;100978.72;128482;1082;64205;-85
2021/07/23 07:14:22;;;;;;;9.37;3.87;;;;;;;28.65;38.64;100977.69;128431;1084;64243;-85
2021/07/23 07:16:49;;;;;;;10.80;4.20;;;;;;;28.66;38.86;100986.71;128478;1084;64114;-84
2021/07/23 07:19:15;;;;;;;7.67;4.10;;;;;;;28.66;38.52;100984.84;128434;1083;64223;-84
2021/07/23 07:21:48;;;;;;;9.27;3.93;;;;;;;28.66;38.59;100983.99;128423;1084;64163;-84
2021/07/23 07:24:22;;;;;;;8.07;3.90;;;;;;;28.67;38.76;100989.27;128783;1083;64086;-84
2021/07/23 07:26:48;;;;;;;8.70;3.87;;;;;;;28.66;38.47;100978.56;128861;1082;64088;-84
2021/07/23 07:29:16;;;;;;;9.53;4.13;;;;;;;28.67;38.35;100978.41;128509;1083;64264;-84
2021/07/23 07:31:45;;;;;;;7.40;4.07;;;;;;;28.67;38.25;100975.69;128468;1084;64123;-85
2021/07/23 07:34:15;;;;;;;7.27;4.10;;;;;;;28.67;38.45;100972.13;128460;1084;64132;-82
2021/07/23 07:36:51;;;;;;;8.57;4.00;;;;;;;28.67;38.35;100964.82;128509;1084;64291;-84
2021/07/23 07:39:20;;;;;;;6.30;3.50;;;;;;;28.67;38.07;100981.12;128928;1083;64175;-85
2021/07/23 07:41:46;;;;;;;7.80;3.77;;;;;;;28.66;38.32;100976.69;128481;1084;64243;-85
2021/07/23 07:44:13;;;;;;;6.97;3.73;;;;;;;28.67;38.24;100972.97;128442;1084;64096;-83
2021/07/23 07:46:39;;;;;;;6.10;3.40;;;;;;;28.67;37.84;100972.13;128419;1084;63443;-83
2021/07/23 07:49:08;;;;;;;;;;;;;;;28.67;37.99;100981.12;128375;1084;64152;-83
2021/07/23 07:51:35;;;;;;;6.90;3.80;;;;;;;28.67;37.90;100969.41;128738;1084;64059;-83
2021/07/23 07:54:01;;;;;;;7.15;3.60;;;;;;;28.68;38.25;100976.53;128811;1084;64353;-83
2021/07/23 07:56:27;;;;;;;6.97;3.77;;;;;;;28.68;37.86;100984.67;128807;1082;64125;-83
2021/07/23 07:58:55;;;;;;;5.70;3.73;;;;;;;28.68;37.91;100974.69;128745;1084;64150;-84
2021/07/23 08:01:21;;;;;;;6.30;3.80;;;;;;;28.68;37.81;100974.69;128486;1084;64227;-84
2021/07/23 08:03:57;;;;;;;7.97;3.77;;;;;;;28.68;37.49;100977.40;128889;1084;64140;-84
2021/07/23 08:06:26;;;;;;;7.73;3.90;;;;;;;28.68;37.99;100985.55;128507;1084;64864;-84
2021/07/23 08:09:16;;;;;;;;;;;;;;;28.68;37.75;100987.39;128935;1084;63922;-85
2021/07/23 08:11:44;;;;;;;5.10;3.50;;;;;;;28.67;37.77;100975.69;128335;1087;64215;-83
2021/07/23 08:14:20;;;;;;;7.90;3.80;;;;;;;28.67;37.95;100981.12;128000;1085;64101;-84
2021/07/23 08:16:55;;;;;;;6.60;3.60;;;;;;;28.67;37.47;100972.97;128343;1087;64134;-84
2021/07/23 08:19:27;;;;;;;8.77;3.70;;;;;;;28.66;37.50;100973.97;128339;1087;64395;-84
2021/07/23 08:21:54;;;;;;;7.43;3.47;;;;;;;28.67;37.30;100972.13;127996;1087;64140;-85
2021/07/23 08:24:39;;;;;;;5.90;3.57;;;;;;;28.67;37.36;100972.97;128358;1087;64278;-84
2021/07/23 08:27:08;;;;;;;6.67;3.37;;;;;;;28.68;37.36;100981.95;128356;1087;64137;-85
2021/07/23 08:29:40;;;;;;;7.00;3.40;;;;;;;28.68;37.54;100977.40;128389;1087;64045;-84
2021/07/23 08:32:10;;;;;;;5.33;3.47;;;;;;;28.68;37.22;100976.53;128375;1087;64140;-84
2021/07/23 08:35:00;;;;;;;5.93;3.20;;;;;;;28.68;37.37;100977.40;128293;1086;64115;-85
2021/07/23 08:37:35;;;;;;;6.63;3.50;;;;;;;28.69;37.19;100959.23;127859;1087;64195;-82
2021/07/23 08:40:13;;;;;;;5.90;3.40;;;;;;;28.68;36.91;100971.97;128137;1085;64392;-83
2021/07/23 08:42:39;;;;;;;5.73;3.37;;;;;;;28.70;37.00;100971.80;128239;1086;64163;-84
2021/07/23 08:45:09;;;;;;;6.67;3.73;;;;;;;28.70;37.23;100966.38;128321;1087;64233;-84
2021/07/23 08:47:38;;;;;;;6.33;3.20;;;;;;;28.71;36.79;100977.08;128308;1087;64172;-83
2021/07/23 08:50:08;;;;;;;6.63;3.50;;;;;;;28.70;37.05;100953.63;128510;1084;64088;-84
2021/07/23 08:52:59;;;;;;;7.27;3.40;;;;;;;28.71;37.10;100954.51;128468;1084;64123;-84
2021/07/23 08:55:27;;;;;;;6.20;3.30;;;;;;;28.71;36.79;100963.50;128869;1083;64170;-84
2021/07/23 08:57:57;;;;;;;5.20;3.23;;;;;;;28.71;36.84;100968.92;128532;1084;64117;-84
2021/07/23 09:00:26;;;;;;;6.27;3.60;;;;;;;28.71;36.78;100958.06;128926;1084;64188;-84
2021/07/23 09:02:56;;;;;;;6.17;3.40;;;;;;;28.72;36.79;100967.05;128911;1082;64030;-84
2021/07/23 09:05:31;;;;;;;5.43;3.27;;;;;;;28.72;36.55;100964.34;128515;1084;64136;-84
2021/07/23 09:08:10;;;;;;;5.00;3.20;;;;;;;28.72;36.44;100956.19;128714;1084;64134;-84
2021/07/23 09:10:37;;;;;;;5.37;3.20;;;;;;;28.73;36.70;100963.33;128783;1084;64141;-84
2021/07/23 09:13:05;;;;;;;5.63;3.20;;;;;;;28.73;36.36;100952.47;128329;1084;64214;-85
2021/07/23 09:15:42;;;;;;;5.60;3.43;;;;;;;28.72;36.09;100951.63;128873;1083;64182;-84
2021/07/23 09:18:20;;;;;;;5.27;3.20;;;;;;;28.73;36.45;100947.03;128378;1084;64179;-85
2021/07/23 09:20:56;;;;;;;7.23;3.20;;;;;;;28.73;36.08;100947.03;128926;1084;64016;-83
2021/07/23 09:23:31;;;;;;;6.40;3.47;;;;;;;28.74;36.55;100943.31;128848;1082;64169;-84
2021/07/23 09:26:03;;;;;;;6.37;3.00;;;;;;;28.73;36.33;100942.48;128828;1084;64099;-85
2021/07/23 09:28:31;;;;;;;5.43;3.00;;;;;;;28.73;36.03;100938.88;128364;1084;64097;-84
2021/07/23 09:31:04;;;;;;;6.50;3.70;;;;;;;28.73;36.33;100934.33;128510;1084;64096;-83
2021/07/23 09:33:37;;;;;;;4.47;3.03;;;;;;;28.73;36.25;100941.60;128826;1084;64039;-84
2021/07/23 09:36:09;;;;;;;5.43;3.10;;;;;;;28.74;36.23;100937.88;128843;1084;64622;-83
2021/07/23 09:38:44;;;;;;;5.00;3.40;;;;;;;28.74;35.83;100927.02;128358;1083;64160;-83
2021/07/23 09:41:12;;;;;;;7.40;3.63;;;;;;;28.74;36.15;100924.30;128868;1084;64332;-84
2021/07/23 09:43:55;;;;;;;5.30;3.23;;;;;;;28.74;36.10;100925.14;128881;1083;64147;-85
2021/07/23 09:46:35;;;;;;;5.00;2.93;;;;;;;28.73;36.15;100925.30;128870;1084;64094;-85
2021/07/23 09:49:20;;;;;;;4.60;2.90;;;;;;;28.73;35.76;100917.16;128858;1084;64301;-83
2021/07/23 09:52:12;;;;;;;5.43;3.00;;;;;;;28.73;35.84;100922.59;128521;1084;64101;-84
2021/07/23 09:54:40;;;;;;;5.17;3.10;;;;;;;28.74;35.88;100927.02;128896;1084;64153;-83
2021/07/23 09:57:09;;;;;;;6.23;2.90;;;;;;;28.73;35.60;100919.88;128484;1083;64142;-84
2021/07/23 09:59:49;;;;;;;5.13;3.37;;;;;;;28.73;35.88;100918.03;128494;1084;64380;-84
2021/07/23 10:02:17;;;;;;;7.13;3.40;;;;;;;28.73;35.83;100914.44;128912;1082;63958;-84
2021/07/23 10:04:55;;;;;;;5.03;3.30;;;;;;;28.73;35.56;100914.44;128928;1084;64405;-85
2021/07/23 10:07:29;;;;;;;;;;;;;;;28.71;35.49;100908.33;128951;1084;63919;-85
2021/07/23 10:09:59;;;;;;;4.93;3.53;;;;;;;28.71;35.50;100913.76;128891;1083;64134;-84
2021/07/23 10:12:26;;;;;;;7.23;3.43;;;;;;;28.69;35.40;100905.74;128488;1084;64549;-85
2021/07/23 10:14:52;;;;;;;5.53;3.47;;;;;;;28.69;35.41;100905.74;128449;1084;64099;-84
2021/07/23 10:17:28;;;;;;;7.00;3.57;;;;;;;28.69;35.62;100911.17;128786;1082;64153;-85
2021/07/23 10:19:57;;;;;;;6.43;3.37;;;;;;;28.69;35.37;100903.02;128424;1084;64299;-85
2021/07/23 10:22:25;;;;;;;5.10;3.30;;;;;;;28.69;35.70;100902.19;128895;1083;64114;-84
2021/07/23 10:24:51;;;;;;;6.40;3.30;;;;;;;28.69;35.35;100910.33;128355;1084;64282;-85
2021/07/23 10:27:22;;;;;;;6.63;3.40;;;;;;;28.69;35.03;100910.33;128825;1084;64137;-84
2021/07/23 10:29:52;;;;;;;6.23;3.30;;;;;;;28.69;35.07;100904.91;128322;1084;64134;-84
2021/07/23 10:32:45;;;;;;;7.50;3.53;;;;;;;28.68;35.15;100906.78;128972;1084;64085;-83
2021/07/23 10:35:37;;;;;;;6.63;3.33;;;;;;;28.68;34.95;100893.20;128362;1087;64463;-83
2021/07/23 10:38:07;;;;;;;5.13;3.30;;;;;;;28.68;34.86;100889.61;127912;1090;64281;-85
2021/07/23 10:40:37;;;;;;;8.50;3.17;;;;;;;28.68;34.90;100887.77;127938;1090;64112;-85
2021/07/23 10:43:32;;;;;;;7.83;3.07;;;;;;;28.68;34.86;100881.45;127668;1089;64156;-83
2021/07/23 10:45:59;;;;;;;6.80;3.20;;;;;;;28.67;34.93;100882.50;127751;1090;64164;-83
2021/07/23 10:48:45;;;;;;;5.80;3.13;;;;;;;28.68;34.64;100876.03;127676;1090;64150;-83
2021/07/23 10:51:52;;;;;;;5.30;2.77;;;;;;;28.68;34.42;100876.90;127947;1089;64253;-83
2021/07/23 10:54:20;;;;;;;6.90;3.20;;;;;;;28.68;34.56;100870.59;127953;1089;64253;-83
2021/07/23 10:57:01;;;;;;;6.33;2.90;;;;;;;28.69;34.38;100869.59;128086;1090;64115;-83
2021/07/23 10:59:40;;;;;;;6.43;3.00;;;;;;;28.70;34.71;100871.30;128046;1090;64281;-83
2021/07/23 11:02:15;;;;;;;5.45;2.98;;;;;;;28.69;34.83;100867.72;128008;1090;64168;-84
2021/07/23 11:04:42;;;;;;;4.47;2.87;;;;;;;28.70;34.67;100866.71;127919;1089;64404;-85
2021/07/23 11:07:19;;;;;;;6.97;3.10;;;;;;;28.69;34.37;100853.30;127862;1090;64138;-85
2021/07/23 11:09:45;;;;;;;6.27;2.90;;;;;;;28.70;34.65;100857.72;127754;1090;64300;-85
2021/07/23 11:12:26;;;;;;;6.57;2.90;;;;;;;28.69;34.36;100845.14;127914;1087;64256;-84
2021/07/23 11:14:57;;;;;;;4.90;2.80;;;;;;;28.69;34.41;100845.98;128011;1084;64142;-84
2021/07/23 11:17:30;;;;;;;4.07;2.60;;;;;;;28.70;34.38;100849.58;128896;1084;64285;-85
2021/07/23 11:20:04;;;;;;;4.00;2.70;;;;;;;28.69;34.13;100845.14;128859;1084;64275;-85
2021/07/23 11:22:36;;;;;;;5.47;3.27;;;;;;;28.69;34.22;100842.43;128396;1084;64278;-82
2021/07/23 11:25:07;;;;;;;5.00;2.90;;;;;;;28.69;34.23;100840.55;128386;1084;64207;-86
2021/07/23 11:27:40;;;;;;;5.53;3.10;;;;;;;28.69;34.17;100843.27;128475;1084;64143;-82
2021/07/23 11:30:24;;;;;;;6.30;3.10;;;;;;;28.70;34.06;100844.14;128763;1084;64138;-82
2021/07/23 11:32:57;;;;;;;7.90;2.80;;;;;;;28.69;34.22;100837.00;128420;1083;64173;-82
2021/07/23 11:35:28;;;;;;;5.90;2.77;;;;;;;28.69;34.27;100832.41;128417;1082;64230;-85
2021/07/23 11:37:55;;;;;;;5.87;3.00;;;;;;;28.70;34.09;100830.56;128532;1082;64128;-85
2021/07/23 11:40:33;;;;;;;5.93;2.90;;;;;;;28.70;34.25;100833.28;128902;1083;64134;-85
2021/07/23 11:43:01;;;;;;;6.10;3.00;;;;;;;28.69;34.09;100834.28;128511;1084;64561;-85
2021/07/23 11:45:36;;;;;;;4.70;2.80;;;;;;;28.70;34.18;100833.28;128480;1084;64131;-85